Terminal Aerodrome Forecast
Issued by NWS Atlanta, GA

Home | Current Version | Previous Version | Text Only | Print | Product List | Glossary On
Versions: 1 2 3 4 5 6 7 8 9 10 11 12 13 14 15 16 17 18 19 20 21 22 23 24 25 26 27 28 29 30 31 32 33 34 35 36 37 38
000
FTAK31 PAJN 191700 RRA
TAFAHN
TAF
PAHN 191742Z 1918/2018 10016G30KT P6SM -SHRA SCT015 OVC050
      TEMPO 1918/1922 6SM -SHRA BR BKN015
     FM200500 11013G22KT P6SM VCSH SCT015 OVC060
     FM201000 VRB04KT P6SM VCSH BKN015 BKN070
     FM201600 30006KT P6SM -RA BKN020 OVC050
      AMD LTD TO CLD VIS AND WIND=

USA.gov is the U.S. government's official web portal to all federal, state and local government web resources and services.